Time;durP1;ratioP1;P1;durP2;ratioP2;P2;SDS_P1;SDS_P2;PMS_P1;PMS_P2;Temp;Humidity;BMP_temperature;BMP_pressure;BME280_temperature;BME280_humidity;BME280_pressure;Samples;Min_cycle;Max_cycle;Signal;HPM_P1;HPM_P2
2022/06/24 00:00:35;;;;;;;29.50;22.53;;;22.60;93.80;;;;;;5051355;28;20462;-91
2022/06/24 00:03:01;;;;;;;28.27;24.83;;;22.60;94.00;;;;;;5056114;28;20419;-91
2022/06/24 00:05:33;;;;;;;32.23;28.30;;;22.50;94.60;;;;;;5057419;28;20419;-91
2022/06/24 00:07:59;;;;;;;39.50;30.17;;;22.50;95.00;;;;;;5052191;28;20575;-91
2022/06/24 00:10:31;;;;;;;45.60;36.40;;;22.40;95.30;;;;;;5044171;28;20436;-91
2022/06/24 00:12:57;;;;;;;55.50;41.93;;;22.50;96.40;;;;;;5048074;28;20420;-91
2022/06/24 00:15:29;;;;;;;47.73;41.10;;;22.40;96.50;;;;;;5066945;28;20459;-91
2022/06/24 00:18:18;;;;;;;59.10;44.27;;;22.40;96.70;;;;;;5043149;28;20459;-91
2022/06/24 00:20:46;;;;;;;68.03;50.47;;;22.30;97.50;;;;;;5043450;28;20464;-89
2022/06/24 00:23:15;;;;;;;82.43;59.27;;;22.30;98.10;;;;;;5043973;28;20431;-89
2022/06/24 00:25:43;;;;;;;84.30;56.70;;;22.20;99.30;;;;;;5042870;28;20423;-89
2022/06/24 00:28:10;;;;;;;89.17;63.60;;;22.20;99.90;;;;;;5043665;28;20506;-89
2022/06/24 00:30:51;;;;;;;110.17;75.77;;;22.10;99.90;;;;;;5043783;28;20490;-90
2022/06/24 00:33:19;;;;;;;110.60;73.30;;;22.20;99.90;;;;;;5044393;28;20431;-89
2022/06/24 00:35:51;;;;;;;115.60;77.27;;;22.00;99.90;;;;;;5047143;28;20513;-90
2022/06/24 00:38:21;;;;;;;123.53;82.13;;;22.00;99.90;;;;;;5053473;28;20937;-90
2022/06/24 00:40:48;;;;;;;127.13;80.10;;;22.10;99.90;;;;;;5056660;28;20447;-89
2022/06/24 00:43:39;;;;;;;108.37;71.27;;;22.00;99.90;;;;;;5056451;28;20475;-90
2022/06/24 00:46:27;;;;;;;119.40;78.30;;;22.00;99.90;;;;;;5052002;28;20416;-89
2022/06/24 00:48:58;;;;;;;134.57;84.53;;;22.10;99.90;;;;;;5066189;28;20397;-89
2022/06/24 00:51:33;;;;;;;131.73;82.97;;;22.00;99.90;;;;;;5067714;28;20440;-89
2022/06/24 00:54:10;;;;;;;147.10;91.90;;;21.90;99.90;;;;;;5049324;28;20424;-89
2022/06/24 00:56:36;;;;;;;158.27;100.80;;;22.00;99.90;;;;;;5063338;28;20486;-90
2022/06/24 00:59:05;;;;;;;169.87;102.87;;;21.90;99.90;;;;;;5058531;28;20451;-89
2022/06/24 01:01:38;;;;;;;173.13;97.60;;;21.80;99.90;;;;;;5053447;28;20442;-90
2022/06/24 01:04:09;;;;;;;167.50;107.73;;;21.80;99.90;;;;;;5050049;28;20426;-88
2022/06/24 01:06:40;;;;;;;209.23;118.00;;;21.80;99.90;;;;;;5044725;28;20453;-88
2022/06/24 01:09:07;;;;;;;191.67;111.80;;;21.80;99.90;;;;;;5042531;28;20451;-89
2022/06/24 01:11:36;;;;;;;200.77;117.13;;;21.80;99.90;;;;;;5042552;28;20475;-89
2022/06/24 01:14:03;;;;;;;201.00;114.43;;;21.90;99.90;;;;;;5042828;28;20420;-89
2022/06/24 01:16:29;;;;;;;187.40;113.23;;;21.90;99.90;;;;;;5043910;28;20499;-89
2022/06/24 01:19:02;;;;;;;222.17;125.93;;;21.60;99.90;;;;;;5042727;28;20460;-89
2022/06/24 01:21:36;;;;;;;175.90;105.67;;;21.50;99.90;;;;;;5042556;28;20444;-89
2022/06/24 01:24:08;;;;;;;160.53;94.47;;;21.30;99.90;;;;;;5043248;28;20427;-89
2022/06/24 01:26:35;;;;;;;126.27;80.70;;;21.40;99.90;;;;;;5059353;28;20447;-89
2022/06/24 01:29:01;;;;;;;161.47;92.30;;;21.40;99.90;;;;;;5059610;28;20823;-88
2022/06/24 01:31:27;;;;;;;81.67;56.27;;;21.30;99.90;;;;;;5041989;28;20466;-89
2022/06/24 01:33:53;;;;;;;94.60;64.30;;;21.20;99.90;;;;;;5041287;28;20503;-89
2022/06/24 01:36:19;;;;;;;88.73;62.10;;;21.10;99.90;;;;;;5041520;28;20430;-89
2022/06/24 01:38:44;;;;;;;62.93;48.20;;;21.00;99.90;;;;;;5045328;28;20451;-89
2022/06/24 01:41:10;;;;;;;71.80;50.60;;;21.00;99.90;;;;;;5049838;28;20587;-90
2022/06/24 01:43:36;;;;;;;59.37;44.87;;;21.00;99.90;;;;;;5041800;28;20189;-90
2022/06/24 01:46:02;;;;;;;63.97;47.87;;;20.90;99.90;;;;;;5043449;28;20266;-90
2022/06/24 01:48:27;;;;;;;47.17;38.67;;;20.80;99.90;;;;;;5044234;28;20544;-90
2022/06/24 01:50:54;;;;;;;35.00;30.00;;;20.80;99.90;;;;;;5047814;28;20463;-90
2022/06/24 01:53:20;;;;;;;37.73;30.73;;;20.70;99.90;;;;;;5050109;28;20180;-91
2022/06/24 01:55:46;;;;;;;37.60;31.40;;;20.60;99.90;;;;;;5045286;28;20542;-90
2022/06/24 01:58:12;;;;;;;36.70;30.33;;;20.40;99.90;;;;;;5059328;28;20205;-91
2022/06/24 02:00:38;;;;;;;35.23;31.23;;;20.50;99.90;;;;;;5040809;28;20877;-90
2022/06/24 02:03:07;;;;;;;44.53;37.23;;;20.50;99.90;;;;;;5058560;28;20193;-89
2022/06/24 02:05:33;;;;;;;45.47;37.40;;;20.40;99.90;;;;;;5043073;28;20428;-89
2022/06/24 02:07:59;;;;;;;51.30;42.43;;;20.40;99.90;;;;;;5045487;28;20436;-89
2022/06/24 02:13:28;;;;;;;56.47;42.90;;;20.50;99.90;;;;;;5066364;28;20454;-89
2022/06/24 02:16:00;;;;;;;59.50;45.47;;;20.40;99.90;;;;;;5042345;28;20426;-89
2022/06/24 02:18:28;;;;;;;67.60;50.47;;;20.40;99.90;;;;;;5040497;28;20455;-89
2022/06/24 02:20:55;;;;;;;64.20;46.20;;;20.50;99.90;;;;;;5039307;28;20574;-89
2022/06/24 02:23:21;;;;;;;65.50;51.47;;;20.50;99.90;;;;;;5047076;28;20487;-90
2022/06/24 02:25:48;;;;;;;63.57;45.60;;;20.60;99.90;;;;;;5049405;28;20546;-90
2022/06/24 02:28:15;;;;;;;62.93;45.67;;;20.70;99.90;;;;;;5046549;28;20454;-90
2022/06/24 02:30:42;;;;;;;64.83;47.63;;;20.70;99.90;;;;;;5055221;28;20455;-91
2022/06/24 02:33:08;;;;;;;70.47;52.97;;;20.70;99.90;;;;;;5058465;28;20451;-89
2022/06/24 02:35:46;;;;;;;65.07;48.43;;;20.70;99.90;;;;;;5053191;28;20484;-89
2022/06/24 02:38:12;;;;;;;69.37;47.67;;;20.60;99.90;;;;;;5049691;28;20467;-91
2022/06/24 02:40:51;;;;;;;65.00;49.87;;;20.70;99.90;;;;;;5044306;28;20474;-89
2022/06/24 02:43:34;;;;;;;62.60;48.20;;;20.70;99.90;;;;;;5041994;28;20192;-90
2022/06/24 02:46:06;;;;;;;60.97;48.63;;;20.70;99.90;;;;;;5027070;28;20423;-89
2022/06/24 02:48:34;;;;;;;52.30;41.00;;;20.70;99.90;;;;;;5044807;28;20466;-89
2022/06/24 02:51:02;;;;;;;47.37;35.60;;;20.60;99.90;;;;;;5054695;28;20447;-90
2022/06/24 02:53:29;;;;;;;33.23;29.70;;;20.60;99.90;;;;;;5050496;28;20423;-89
2022/06/24 02:55:57;;;;;;;39.13;29.50;;;20.60;99.90;;;;;;5045062;28;20427;-90
2022/06/24 02:58:23;;;;;;;39.03;26.63;;;20.60;99.90;;;;;;5064109;28;20542;-90
2022/06/24 03:00:50;;;;;;;32.33;27.70;;;20.60;99.90;;;;;;5047612;28;20854;-91
2022/06/24 03:03:18;;;;;;;37.80;33.73;;;20.60;99.90;;;;;;5054042;28;20439;-91
2022/06/24 03:05:45;;;;;;;49.53;37.50;;;20.60;99.90;;;;;;5071923;28;20510;-90
2022/06/24 03:08:12;;;;;;;55.00;43.63;;;20.60;99.90;;;;;;5051666;28;20426;-90
2022/06/24 03:10:38;;;;;;;62.23;47.43;;;20.70;99.90;;;;;;5047249;28;20458;-89
2022/06/24 03:13:04;;;;;;;53.30;45.27;;;20.70;99.90;;;;;;5044393;28;20431;-90
2022/06/24 03:15:30;;;;;;;61.40;47.10;;;20.60;99.90;;;;;;5047068;28;20460;-90
2022/06/24 03:17:57;;;;;;;47.30;39.00;;;20.60;99.90;;;;;;5045005;28;20677;-89
2022/06/24 03:20:23;;;;;;;35.70;31.43;;;20.60;99.90;;;;;;5061018;28;20481;-90
2022/06/24 03:22:49;;;;;;;34.93;29.20;;;20.60;99.90;;;;;;5043156;28;20510;-90
2022/06/24 03:25:14;;;;;;;39.33;29.83;;;20.60;99.90;;;;;;5043403;28;20517;-90
2022/06/24 03:27:40;;;;;;;30.70;26.20;;;20.60;99.90;;;;;;5045285;28;20187;-89
2022/06/24 03:30:08;;;;;;;38.23;30.77;;;20.60;99.90;;;;;;5054078;28;20268;-90
2022/06/24 03:32:33;;;;;;;34.07;30.50;;;20.60;99.90;;;;;;5061316;28;20193;-91
2022/06/24 03:35:00;;;;;;;42.93;31.80;;;20.60;99.90;;;;;;5054861;28;20807;-90
2022/06/24 03:37:26;;;;;;;46.80;36.70;;;20.70;99.90;;;;;;5069261;28;20458;-89
2022/06/24 03:39:54;;;;;;;50.97;39.53;;;20.70;99.90;;;;;;5048694;28;20443;-89
2022/06/24 03:42:20;;;;;;;61.63;45.57;;;20.80;99.90;;;;;;5053973;28;20407;-89
2022/06/24 03:44:46;;;;;;;66.30;50.93;;;20.70;99.90;;;;;;5055924;28;20457;-89
2022/06/24 03:47:12;;;;;;;75.90;55.07;;;20.80;99.90;;;;;;5043752;28;20854;-89
2022/06/24 03:49:38;;;;;;;83.03;56.90;;;20.80;99.90;;;;;;5042866;28;20460;-89
2022/06/24 03:52:04;;;;;;;76.60;54.27;;;20.80;99.90;;;;;;5045095;28;20481;-88
2022/06/24 03:54:30;;;;;;;71.47;54.30;;;20.90;99.90;;;;;;5052061;28;20252;-89
2022/06/24 03:56:56;;;;;;;74.90;53.73;;;20.90;99.90;;;;;;5041303;28;20424;-90
2022/06/24 03:59:22;;;;;;;58.03;47.50;;;20.90;99.90;;;;;;5041834;28;20178;-89
2022/06/24 04:01:47;;;;;;;55.43;45.17;;;20.80;99.90;;;;;;5043243;28;20458;-89
2022/06/24 04:04:13;;;;;;;58.10;47.60;;;20.80;99.90;;;;;;5054501;28;20209;-89
2022/06/24 04:06:39;;;;;;;57.40;48.00;;;20.80;99.90;;;;;;5049929;28;20242;-91
2022/06/24 04:09:05;;;;;;;59.37;45.73;;;20.80;99.90;;;;;;5043294;28;20257;-90
2022/06/24 04:11:30;;;;;;;57.10;45.30;;;20.80;99.90;;;;;;5043143;28;20208;-89
2022/06/24 04:13:56;;;;;;;62.53;50.73;;;20.80;99.90;;;;;;5043306;28;20245;-90
2022/06/24 04:16:22;;;;;;;56.13;46.37;;;20.90;99.90;;;;;;5043093;28;20177;-90
2022/06/24 04:18:50;;;;;;;59.07;44.87;;;20.80;99.90;;;;;;5043498;28;20211;-89
2022/06/24 04:21:17;;;;;;;72.77;51.40;;;20.80;99.90;;;;;;5043403;28;20227;-91
2022/06/24 04:23:44;;;;;;;71.17;52.30;;;20.90;99.90;;;;;;5043084;28;20432;-91
2022/06/24 04:26:10;;;;;;;69.00;50.33;;;20.90;99.90;;;;;;5054682;28;20866;-90
2022/06/24 04:28:37;;;;;;;58.97;46.70;;;20.80;99.90;;;;;;5043032;28;20969;-90
2022/06/24 04:31:02;;;;;;;65.00;49.43;;;20.70;99.90;;;;;;5042635;28;20518;-90
2022/06/24 04:33:29;;;;;;;57.07;42.70;;;20.60;99.90;;;;;;5042090;28;20459;-88
2022/06/24 04:35:54;;;;;;;62.63;47.80;;;20.60;99.90;;;;;;5045951;28;20435;-88
2022/06/24 04:38:20;;;;;;;73.63;53.80;;;20.60;99.90;;;;;;5051605;28;20459;-89
2022/06/24 04:40:46;;;;;;;76.10;55.33;;;20.60;99.90;;;;;;5047909;28;20204;-88
2022/06/24 04:43:12;;;;;;;76.27;54.97;;;20.70;99.90;;;;;;5043913;28;20188;-89
2022/06/24 04:45:38;;;;;;;63.43;46.77;;;20.60;99.90;;;;;;5042979;28;20786;-88
2022/06/24 04:48:05;;;;;;;64.60;47.27;;;20.60;99.90;;;;;;5042491;28;20181;-89
2022/06/24 04:50:31;;;;;;;68.50;48.27;;;20.60;99.90;;;;;;5042587;28;20462;-88
2022/06/24 04:52:57;;;;;;;64.63;45.13;;;20.60;99.90;;;;;;5047320;28;20440;-89
2022/06/24 04:55:23;;;;;;;67.30;45.83;;;20.50;99.90;;;;;;5055412;28;20431;-89
2022/06/24 04:57:49;;;;;;;70.10;47.70;;;20.40;99.90;;;;;;5056474;28;20468;-89
2022/06/24 05:00:15;;;;;;;66.53;45.93;;;20.50;99.90;;;;;;5056492;28;20478;-89
2022/06/24 05:02:41;;;;;;;65.83;46.10;;;20.50;99.90;;;;;;5071250;28;20188;-89
2022/06/24 05:05:11;;;;;;;69.83;53.80;;;20.40;99.90;;;;;;5050244;28;20793;-88
2022/06/24 05:07:38;;;;;;;62.03;46.33;;;20.40;99.90;;;;;;5046056;28;20451;-88
2022/06/24 05:10:05;;;;;;;66.93;50.63;;;20.50;99.90;;;;;;5041961;28;20477;-88
2022/06/24 05:12:31;;;;;;;53.70;41.13;;;20.40;99.90;;;;;;5041074;28;20436;-88
2022/06/24 05:14:57;;;;;;;59.47;45.37;;;20.40;99.90;;;;;;5042177;28;20459;-88
2022/06/24 05:17:24;;;;;;;78.00;51.70;;;20.40;99.90;;;;;;5042420;28;20463;-88
2022/06/24 05:19:53;;;;;;;80.83;58.80;;;20.40;99.90;;;;;;5043198;28;20966;-92
2022/06/24 05:22:20;;;;;;;88.17;59.30;;;20.40;99.90;;;;;;5048240;28;20431;-91
2022/06/24 05:24:46;;;;;;;90.73;59.20;;;20.40;99.90;;;;;;5055586;28;20930;-90
2022/06/24 05:27:12;;;;;;;94.47;64.90;;;20.40;99.90;;;;;;5045180;28;20434;-90
2022/06/24 05:29:38;;;;;;;77.90;57.40;;;20.50;99.90;;;;;;5045631;28;20447;-90
2022/06/24 05:32:04;;;;;;;85.07;56.90;;;20.60;99.90;;;;;;5054236;28;20177;-90
2022/06/24 05:34:30;;;;;;;92.37;62.27;;;20.50;99.90;;;;;;5058425;28;20169;-91
2022/06/24 05:36:56;;;;;;;105.43;64.10;;;20.50;99.90;;;;;;5053732;28;20511;-89
2022/06/24 05:39:21;;;;;;;68.80;48.27;;;20.50;99.90;;;;;;5040368;28;20184;-89
2022/06/24 05:41:47;;;;;;;64.57;47.20;;;20.60;99.90;;;;;;5038770;28;20424;-90
2022/06/24 05:44:13;;;;;;;54.00;44.27;;;20.60;99.90;;;;;;5039167;28;20169;-90
2022/06/24 05:46:40;;;;;;;56.50;43.63;;;20.50;99.90;;;;;;5040038;28;20193;-92
2022/06/24 05:49:06;;;;;;;53.80;41.17;;;20.60;99.90;;;;;;5040871;28;20434;-90
2022/06/24 05:51:35;;;;;;;48.80;39.67;;;20.50;99.90;;;;;;5040548;28;20531;-91
2022/06/24 05:56:55;;;;;;;62.33;48.00;;;20.50;99.90;;;;;;5058655;28;20967;-91
2022/06/24 05:59:20;;;;;;;60.57;46.80;;;20.60;99.90;;;;;;5040551;28;20439;-89
2022/06/24 06:01:46;;;;;;;66.17;51.17;;;20.60;99.90;;;;;;5042038;28;20260;-89
2022/06/24 06:04:12;;;;;;;71.80;52.27;;;20.60;99.90;;;;;;5020948;28;20186;-90
2022/06/24 06:06:37;;;;;;;58.80;45.50;;;20.70;99.90;;;;;;5024981;28;20185;-89
2022/06/24 06:09:03;;;;;;;53.23;40.63;;;20.70;99.90;;;;;;5038000;28;20197;-89
2022/06/24 06:11:29;;;;;;;56.30;43.60;;;20.80;99.90;;;;;;5039346;28;20201;-89
2022/06/24 06:13:55;;;;;;;65.23;46.83;;;20.80;99.90;;;;;;5065399;28;20177;-88
2022/06/24 06:16:22;;;;;;;73.00;52.70;;;20.80;99.90;;;;;;5039402;28;20204;-88
2022/06/24 06:18:48;;;;;;;69.90;53.33;;;20.90;99.90;;;;;;5037245;28;20877;-88
2022/06/24 06:21:16;;;;;;;70.00;54.27;;;20.90;99.90;;;;;;5054898;28;20443;-88
2022/06/24 06:23:43;;;;;;;83.07;57.80;;;21.00;99.90;;;;;;5061340;28;20514;-88
2022/06/24 06:26:10;;;;;;;91.80;60.90;;;21.00;99.90;;;;;;5048467;28;20432;-88
2022/06/24 06:28:37;;;;;;;71.17;52.47;;;21.00;99.90;;;;;;5062970;28;20436;-88
2022/06/24 06:31:03;;;;;;;83.00;58.87;;;21.00;99.90;;;;;;5033465;28;20448;-89
2022/06/24 06:33:31;;;;;;;57.07;43.47;;;21.00;99.90;;;;;;5039758;28;20430;-89
2022/06/24 06:36:11;;;;;;;39.67;32.70;;;21.00;99.90;;;;;;5041335;28;20428;-90
2022/06/24 06:38:37;;;;;;;37.73;28.30;;;21.00;99.90;;;;;;5039422;28;20500;-89
2022/06/24 06:41:03;;;;;;;38.20;30.70;;;21.00;99.90;;;;;;5037257;28;20528;-89
2022/06/24 06:43:29;;;;;;;36.17;29.83;;;21.00;99.90;;;;;;5040160;28;21019;-88
2022/06/24 06:45:55;;;;;;;30.67;25.00;;;20.90;99.90;;;;;;5059301;28;20424;-88
2022/06/24 06:48:22;;;;;;;28.07;23.63;;;20.90;99.90;;;;;;5040701;28;20427;-88
2022/06/24 06:50:53;;;;;;;28.60;22.07;;;20.90;99.90;;;;;;5041036;28;20471;-88
2022/06/24 06:53:19;;;;;;;28.40;24.87;;;20.90;99.90;;;;;;5060829;28;20904;-86
2022/06/24 06:55:44;;;;;;;33.73;27.13;;;21.00;99.90;;;;;;5047280;28;20449;-86
2022/06/24 06:58:25;;;;;;;31.27;26.50;;;21.10;99.90;;;;;;5036904;28;20185;-86
2022/06/24 07:00:52;;;;;;;31.10;24.53;;;21.10;99.90;;;;;;5057088;28;20246;-87
2022/06/24 07:03:18;;;;;;;37.07;23.50;;;21.10;99.90;;;;;;5060475;28;20430;-89
2022/06/24 07:05:44;;;;;;;33.23;23.50;;;21.20;99.90;;;;;;5060016;28;20454;-90
2022/06/24 07:08:12;;;;;;;26.13;19.03;;;21.20;99.90;;;;;;5043412;28;20422;-89
2022/06/24 07:10:51;;;;;;;26.73;20.37;;;21.40;99.90;;;;;;5026232;28;20450;-89
2022/06/24 07:13:19;;;;;;;21.87;19.00;;;21.50;99.40;;;;;;5046910;28;20415;-92
2022/06/24 07:15:45;;;;;;;22.00;18.63;;;21.70;98.20;;;;;;5054512;28;20432;-88
2022/06/24 07:18:11;;;;;;;20.70;18.50;;;21.70;97.30;;;;;;5041608;28;20979;-87
2022/06/24 07:20:37;;;;;;;17.77;15.97;;;21.60;95.10;;;;;;5049032;28;20193;-88
2022/06/24 07:23:02;;;;;;;20.30;17.30;;;21.70;95.10;;;;;;5070149;28;20491;-90
2022/06/24 07:25:30;;;;;;;22.70;15.33;;;21.80;94.80;;;;;;5066779;22;20591;-91
2022/06/24 07:27:56;;;;;;;21.40;18.20;;;21.80;94.80;;;;;;5000923;28;20422;-91
2022/06/24 07:30:22;;;;;;;25.47;18.93;;;21.80;93.60;;;;;;5010442;28;20417;-91
2022/06/24 07:32:47;;;;;;;23.40;18.70;;;21.80;93.40;;;;;;5018196;28;20185;-92
2022/06/24 07:35:14;;;;;;;22.20;17.67;;;21.80;94.00;;;;;;5017530;28;20561;-93
2022/06/24 07:37:40;;;;;;;20.33;16.27;;;21.80;93.90;;;;;;5010655;28;20205;-93
2022/06/24 07:40:06;;;;;;;19.90;17.63;;;21.90;94.50;;;;;;4980529;28;20430;-93
2022/06/24 07:42:33;;;;;;;21.73;18.50;;;22.00;94.50;;;;;;5010812;28;20158;-93
2022/06/24 07:44:59;;;;;;;18.47;14.33;;;21.90;93.60;;;;;;5008842;28;20434;-92
2022/06/24 07:47:36;;;;;;;15.37;13.37;;;22.10;94.60;;;;;;5013508;28;20432;-92
2022/06/24 07:50:06;;;;;;;17.70;15.47;;;22.50;93.80;;;;;;5016807;28;20509;-93
2022/06/24 07:52:32;;;;;;;14.80;13.30;;;22.60;91.10;;;;;;5015136;28;20483;-92
2022/06/24 07:58:02;;;;;;;19.70;17.80;;;22.90;89.80;;;;;;5016206;28;20625;-92
2022/06/24 08:00:27;;;;;;;22.57;18.63;;;23.00;89.10;;;;;;5031281;28;20417;-92
2022/06/24 08:02:53;;;;;;;15.83;14.20;;;22.90;88.00;;;;;;5014258;28;20560;-92
2022/06/24 08:05:19;;;;;;;23.27;16.20;;;23.00;88.00;;;;;;5030703;28;20670;-93
2022/06/24 08:07:45;;;;;;;13.93;12.43;;;23.00;86.80;;;;;;5031137;28;20426;-92
2022/06/24 08:10:11;;;;;;;24.50;17.50;;;23.00;85.50;;;;;;5013584;28;20425;-93
2022/06/24 08:12:37;;;;;;;16.73;13.60;;;22.90;85.50;;;;;;5015536;28;20210;-92
2022/06/24 08:15:03;;;;;;;15.77;13.30;;;22.80;85.70;;;;;;4998252;28;20433;-92
2022/06/24 08:17:29;;;;;;;12.93;11.73;;;23.00;86.40;;;;;;5013449;28;20561;-91
2022/06/24 08:19:54;;;;;;;15.07;11.70;;;23.20;85.20;;;;;;5013551;28;20429;-93
2022/06/24 08:22:20;;;;;;;13.97;10.40;;;23.30;83.40;;;;;;5031361;28;20167;-91
2022/06/24 08:24:46;;;;;;;11.40;9.60;;;23.50;81.40;;;;;;5014607;28;20179;-91
2022/06/24 08:27:12;;;;;;;13.13;9.60;;;23.40;81.80;;;;;;5014386;28;20452;-87
2022/06/24 08:29:38;;;;;;;10.63;9.17;;;23.50;81.90;;;;;;5013671;28;20210;-88
2022/06/24 08:32:05;;;;;;;11.00;9.93;;;23.50;82.00;;;;;;5014691;28;20422;-90
2022/06/24 08:34:30;;;;;;;11.17;9.20;;;23.60;83.40;;;;;;5013945;28;20508;-89
2022/06/24 08:36:56;;;;;;;14.47;12.43;;;23.50;84.60;;;;;;5012883;28;20484;-90
2022/06/24 08:39:22;;;;;;;12.60;9.07;;;23.20;84.90;;;;;;5013996;28;20485;-89
2022/06/24 08:41:55;;;;;;;15.60;11.97;;;23.10;85.40;;;;;;5013551;28;20231;-90
2022/06/24 08:44:22;;;;;;;14.73;11.60;;;23.00;86.00;;;;;;5014289;28;20417;-90
2022/06/24 08:46:48;;;;;;;13.83;8.47;;;22.90;85.80;;;;;;5013069;28;20457;-90
2022/06/24 08:49:13;;;;;;;7.77;6.33;;;22.80;85.10;;;;;;5014204;28;20800;-91
2022/06/24 08:51:41;;;;;;;8.23;5.20;;;22.80;83.40;;;;;;5014664;28;20167;-89
2022/06/24 08:54:09;;;;;;;2.60;2.40;;;22.70;84.00;;;;;;5014185;28;20653;-88
2022/06/24 08:56:35;;;;;;;1.90;1.50;;;22.30;82.60;;;;;;5016088;28;20433;-89
2022/06/24 08:59:01;;;;;;;2.33;2.13;;;21.90;82.50;;;;;;5016814;28;20457;-89
2022/06/24 09:01:27;;;;;;;2.17;1.93;;;21.70;83.50;;;;;;5021387;28;20440;-88
2022/06/24 09:03:53;;;;;;;1.90;1.60;;;21.60;84.80;;;;;;5015136;28;20429;-88
2022/06/24 09:06:20;;;;;;;3.37;2.20;;;21.60;84.40;;;;;;5013541;28;20191;-90
2022/06/24 09:08:48;;;;;;;9.07;2.40;;;21.50;85.50;;;;;;5012752;28;20479;-90
2022/06/24 09:11:18;;;;;;;4.30;2.10;;;21.40;85.50;;;;;;5013656;28;20437;-89
2022/06/24 09:13:45;;;;;;;4.57;2.00;;;21.10;85.40;;;;;;5012885;28;20430;-89
2022/06/24 09:16:12;;;;;;;2.00;1.40;;;21.10;86.00;;;;;;5013323;28;20446;-89
2022/06/24 09:18:39;;;;;;;4.93;1.37;;;21.10;85.80;;;;;;5015724;28;20463;-88
2022/06/24 09:21:05;;;;;;;3.30;1.90;;;21.20;87.20;;;;;;5014837;28;20414;-90
2022/06/24 09:23:31;;;;;;;4.40;2.20;;;21.10;86.50;;;;;;5013775;28;20823;-89
2022/06/24 09:26:00;;;;;;;4.37;2.10;;;21.20;87.00;;;;;;5014085;28;20449;-89
2022/06/24 09:28:31;;;;;;;2.83;1.43;;;21.10;86.70;;;;;;5012371;28;20488;-90
2022/06/24 09:31:02;;;;;;;3.10;1.97;;;21.30;86.80;;;;;;5014086;28;20425;-90
2022/06/24 09:33:35;;;;;;;9.40;2.67;;;21.20;86.70;;;;;;5012889;28;20470;-90
2022/06/24 09:36:02;;;;;;;2.97;1.83;;;21.10;86.40;;;;;;5012062;28;20475;-90
2022/06/24 09:38:27;;;;;;;3.87;1.93;;;21.20;86.60;;;;;;5012623;28;20535;-90
2022/06/24 09:41:04;;;;;;;2.80;1.93;;;21.40;87.20;;;;;;5012304;28;20418;-91
2022/06/24 09:43:31;;;;;;;4.50;1.63;;;21.50;87.40;;;;;;5012158;28;20166;-91
2022/06/24 09:45:58;;;;;;;1.63;1.23;;;21.70;85.20;;;;;;5013193;28;20441;-92
2022/06/24 09:48:32;;;;;;;3.70;1.57;;;21.80;82.30;;;;;;5019615;28;20433;-90
2022/06/24 09:51:02;;;;;;;8.00;2.50;;;22.00;81.40;;;;;;5017325;28;20453;-90
2022/06/24 09:53:32;;;;;;;15.03;3.97;;;22.00;82.90;;;;;;5024967;28;20932;-90
2022/06/24 09:55:59;;;;;;;13.20;2.70;;;21.90;83.90;;;;;;5007412;28;20475;-90
2022/06/24 09:58:26;;;;;;;11.73;3.43;;;21.80;83.70;;;;;;5024082;28;20488;-90
2022/06/24 10:00:52;;;;;;;9.03;3.07;;;22.00;83.10;;;;;;5026681;28;20422;-91
2022/06/24 10:03:18;;;;;;;1.73;1.40;;;22.50;83.90;;;;;;5024169;28;20418;-90
2022/06/24 10:05:46;;;;;;;1.97;1.30;;;22.80;81.80;;;;;;5013504;28;20460;-90
2022/06/24 10:08:15;;;;;;;1.40;1.23;;;23.00;79.30;;;;;;5012240;28;20942;-90
2022/06/24 10:10:55;;;;;;;1.70;1.13;;;23.20;79.10;;;;;;5012172;28;20457;-90
2022/06/24 10:13:29;;;;;;;1.70;1.30;;;23.20;78.20;;;;;;5012094;28;20424;-91
2022/06/24 10:15:57;;;;;;;2.90;1.50;;;23.40;77.60;;;;;;5012075;28;20449;-91
2022/06/24 10:18:34;;;;;;;1.37;1.17;;;23.70;77.10;;;;;;5010781;28;20493;-90
2022/06/24 10:21:06;;;;;;;1.60;1.50;;;23.80;76.20;;;;;;4992426;28;20922;-90
2022/06/24 10:24:14;;;;;;;2.17;1.10;;;23.80;75.60;;;;;;5006711;28;20429;-91
2022/06/24 10:26:44;;;;;;;3.33;1.70;;;23.70;75.70;;;;;;4994262;28;20469;-91
2022/06/24 10:29:13;;;;;;;2.23;1.80;;;23.60;74.60;;;;;;5011554;28;20444;-91
2022/06/24 10:31:42;;;;;;;4.40;1.80;;;23.50;74.50;;;;;;5027812;28;21055;-90
2022/06/24 10:34:20;;;;;;;2.30;2.10;;;23.50;74.30;;;;;;5011576;28;20914;-90
2022/06/24 10:36:47;;;;;;;2.53;1.90;;;24.20;70.40;;;;;;5009719;28;20861;-90
2022/06/24 10:39:16;;;;;;;2.47;2.27;;;24.40;71.50;;;;;;5011680;28;20457;-90
2022/06/24 10:41:42;;;;;;;3.93;2.93;;;24.40;72.40;;;;;;5012311;28;20438;-90
2022/06/24 10:44:20;;;;;;;3.30;3.00;;;24.90;66.90;;;;;;5011697;28;20429;-90
2022/06/24 10:46:45;;;;;;;3.20;2.90;;;24.90;69.70;;;;;;5012559;28;20538;-90
2022/06/24 10:49:11;;;;;;;2.50;2.30;;;25.00;67.10;;;;;;5011638;28;20510;-89
2022/06/24 10:51:37;;;;;;;3.27;2.53;;;25.20;65.80;;;;;;5011934;28;20204;-89
2022/06/24 10:54:03;;;;;;;2.90;2.60;;;25.30;65.10;;;;;;5011450;28;20186;-89
2022/06/24 10:57:04;;;;;;;2.07;1.87;;;25.20;68.00;;;;;;5012984;28;20535;-89
2022/06/24 10:59:29;;;;;;;6.63;2.50;;;24.80;70.40;;;;;;4963741;28;20178;-90
2022/06/24 11:01:55;;;;;;;2.90;2.70;;;25.00;69.00;;;;;;5001461;28;20410;-90
2022/06/24 11:04:30;;;;;;;6.73;2.97;;;24.90;70.50;;;;;;5000182;28;20194;-91
2022/06/24 11:07:15;;;;;;;4.57;2.73;;;25.30;68.50;;;;;;5017504;28;20320;-90
2022/06/24 11:09:41;;;;;;;3.40;2.70;;;25.20;69.40;;;;;;5015954;28;20413;-90
2022/06/24 11:12:29;;;;;;;2.87;2.57;;;25.70;62.90;;;;;;5015239;28;20428;-90
2022/06/24 11:14:55;;;;;;;1.93;1.70;;;25.60;64.90;;;;;;5016352;28;20206;-91
2022/06/24 11:17:25;;;;;;;5.20;2.47;;;25.60;66.20;;;;;;5014814;28;20425;-91
2022/06/24 11:19:52;;;;;;;11.73;4.13;;;25.10;66.40;;;;;;5010753;28;20421;-91
2022/06/24 11:22:19;;;;;;;2.80;2.20;;;25.20;67.40;;;;;;4996679;28;20410;-89
2022/06/24 11:25:05;;;;;;;3.43;2.23;;;25.70;63.90;;;;;;5030900;28;20784;-91
2022/06/24 11:27:36;;;;;;;4.07;2.43;;;26.00;63.20;;;;;;5011846;28;20460;-92
2022/06/24 11:30:03;;;;;;;3.33;3.10;;;25.80;64.00;;;;;;5000728;28;20425;-92
2022/06/24 11:32:49;;;;;;;3.67;2.20;;;25.20;65.00;;;;;;5015606;28;20507;-90
2022/06/24 11:35:19;;;;;;;2.83;2.23;;;25.40;64.50;;;;;;5014864;28;20506;-90
2022/06/24 11:37:50;;;;;;;2.67;2.47;;;25.50;66.00;;;;;;5014714;28;20563;-90
2022/06/24 11:40:24;;;;;;;2.37;2.23;;;25.70;64.20;;;;;;5015427;28;20406;-90
2022/06/24 11:42:52;;;;;;;2.77;2.57;;;25.70;64.10;;;;;;5014932;28;20421;-90
2022/06/24 11:45:32;;;;;;;3.13;2.90;;;25.70;64.10;;;;;;5004997;28;20442;-90
2022/06/24 11:47:58;;;;;;;3.80;2.73;;;25.50;63.70;;;;;;4996821;28;20421;-91
2022/06/24 11:50:24;;;;;;;3.93;2.90;;;25.30;65.10;;;;;;4994879;28;20433;-91
2022/06/24 11:52:49;;;;;;;3.37;3.07;;;25.60;62.00;;;;;;4994979;28;20422;-91
2022/06/24 11:55:38;;;;;;;3.07;2.77;;;25.20;63.80;;;;;;4995038;28;20199;-91
2022/06/24 11:58:13;;;;;;;3.50;3.03;;;25.20;65.00;;;;;;4994449;28;20206;-91
2022/06/24 12:00:40;;;;;;;3.00;2.80;;;25.00;65.70;;;;;;4997538;28;20448;-91
2022/06/24 12:03:12;;;;;;;7.00;3.17;;;25.20;66.00;;;;;;5011827;28;20428;-90
2022/06/24 12:05:42;;;;;;;3.93;3.20;;;25.20;65.80;;;;;;5015000;28;20443;-91
2022/06/24 12:08:19;;;;;;;3.53;3.20;;;25.20;63.80;;;;;;5014219;28;21011;-91
2022/06/24 12:10:50;;;;;;;2.90;2.70;;;25.20;65.00;;;;;;5014518;28;20919;-91
2022/06/24 12:13:25;;;;;;;6.27;3.70;;;25.40;64.70;;;;;;5014123;28;20784;-91
2022/06/24 12:15:52;;;;;;;5.67;4.10;;;25.40;63.70;;;;;;5014404;28;20437;-90
2022/06/24 12:18:22;;;;;;;3.97;3.57;;;25.60;62.10;;;;;;5012612;28;20461;-91
2022/06/24 12:21:03;;;;;;;6.33;5.27;;;25.60;62.10;;;;;;5015352;28;20562;-91
2022/06/24 12:23:37;;;;;;;6.93;4.50;;;25.70;61.70;;;;;;5014373;28;20413;-91
2022/06/24 12:26:13;;;;;;;5.97;4.20;;;25.60;61.60;;;;;;5014215;28;20523;-91
2022/06/24 12:28:40;;;;;;;5.73;5.10;;;25.50;62.50;;;;;;5015030;28;20455;-91
2022/06/24 12:31:07;;;;;;;5.10;3.60;;;25.50;62.30;;;;;;5014248;28;20496;-91
2022/06/24 12:33:52;;;;;;;9.70;5.77;;;25.50;61.90;;;;;;5015271;28;20428;-91
2022/06/24 12:36:47;;;;;;;4.30;3.90;;;25.70;60.90;;;;;;5004599;28;20454;-91
2022/06/24 12:39:13;;;;;;;5.73;4.40;;;25.80;60.70;;;;;;4994546;28;20529;-91
2022/06/24 12:41:49;;;;;;;6.60;5.23;;;25.90;61.60;;;;;;4994842;28;20461;-91
2022/06/24 12:44:42;;;;;;;9.93;4.63;;;25.80;59.00;;;;;;5004213;28;20421;-92
2022/06/24 12:52:44;;;;;;;8.20;5.80;;;25.60;59.60;;;;;;5014111;28;20413;-91
2022/06/24 12:55:13;;;;;;;8.23;6.17;;;25.50;57.80;;;;;;5014257;28;20410;-91